Weather History for Eveleth, MN

Change the Weather History Date:

Sunday, October 7, 2012

  Actual Average Record
Temperature  
Mean Temperature 40 °F -  
Max Temperature 53 °F 56 °F 82 °F (2003)
Min Temperature 26 °F 34 °F 19 °F (2001)
Degree Days  
Heating Degree Days 26    
Moisture  
Dew Point 23 °F    
Average Humidity 60    
Maximum Humidity 93    
Minimum Humidity 28    
Precipitation  
Precipitation 0.00 in - - ()
Sea Level Pressure  
Sea Level Pressure 29.95 in    
Wind  
Wind Speed 7 mph (SW)    
Max Wind Speed 18 mph    
Max Gust Speed 26 mph    
Visibility 10 miles    
Events      
Averages and records for this station are not official NWS values.
T = Trace of Precipitation, MM = Missing Value Source: NWS Daily Summary

Daily Weather History Graph

Daily Weather History Graph

Search for Another Location

Airport:

Trip Planner

Search our weather history database for the weather conditions in past years. The results will help you decide how hot, cold, wet, or windy it might be!

Date:

Astronomy

Oct. 07, 2012 Rise Set
Actual Time 7:17 AM CDT 6:36 PM CDT
Civil Twilight 6:47 AM CDT 7:07 PM CDT
Nautical Twilight 6:11 AM CDT 7:42 PM CDT
Astronomical Twilight 5:35 AM CDT 8:18 PM CDT
Moon 11:32 PM CDT (10/7) 2:12 PM CDT (10/7)
Length of Visible Light 12h 19m
Length of Day
11h 18m
Waning Gibbous, 56% of the Moon is Illuminated
Oct 7
Waning Gibbous
Oct 8
Last Quarter
Oct 15
New
Oct 21
First Quarter
Oct 29
Full

Hourly Weather History & Observations

Time (CDT) Temp. Windchill Dew Point Humidity Pressure Visibility Wind Dir Wind Speed Gust Speed Precip Events Conditions
12:10 AM 32.0 °F 27.5 °F 26.6 °F 80% 30.13 in 10.0 mi WSW 4.6 mph - N/A   Clear
12:29 AM 32.0 °F 27.5 °F 26.6 °F 80% 30.12 in 10.0 mi WSW 4.6 mph - N/A   Clear
12:50 AM 32.0 °F 28.7 °F 26.6 °F 80% 30.12 in 10.0 mi WSW 3.5 mph - N/A   Clear
1:09 AM 32.0 °F 28.7 °F 26.6 °F 80% 30.11 in 10.0 mi West 3.5 mph - N/A   Clear
1:29 AM 32.0 °F 28.7 °F 26.6 °F 80% 30.11 in 10.0 mi WSW 3.5 mph - N/A   Clear
1:50 AM 30.2 °F 26.7 °F 24.8 °F 80% 30.11 in 10.0 mi WSW 3.5 mph - N/A   Clear
2:09 AM 28.4 °F 23.3 °F 24.8 °F 86% 30.10 in 10.0 mi WSW 4.6 mph - N/A   Clear
2:29 AM 28.4 °F - 24.8 °F 86% 30.10 in 10.0 mi Calm Calm - N/A   Clear
2:50 AM 28.4 °F 23.3 °F 23.0 °F 80% 30.09 in 10.0 mi SW 4.6 mph - N/A   Clear
3:09 AM 28.4 °F 23.3 °F 24.8 °F 86% 30.08 in 10.0 mi SSW 4.6 mph - N/A   Clear
3:29 AM 28.4 °F 23.3 °F 24.8 °F 86% 30.07 in 10.0 mi SW 4.6 mph - N/A   Clear
3:50 AM 28.4 °F 24.6 °F 23.0 °F 80% 30.06 in 10.0 mi SSW 3.5 mph - N/A   Clear
4:09 AM 28.4 °F 24.6 °F 23.0 °F 80% 30.06 in 10.0 mi SSW 3.5 mph - N/A   Clear
4:29 AM 28.4 °F 24.6 °F 23.0 °F 80% 30.06 in 10.0 mi SSW 3.5 mph - N/A   Clear
4:50 AM 26.6 °F 21.2 °F 23.0 °F 86% 30.05 in 10.0 mi SW 4.6 mph - N/A   Clear
5:09 AM 26.6 °F 21.2 °F 23.0 °F 86% 30.05 in 10.0 mi SW 4.6 mph - N/A   Clear
5:29 AM 26.6 °F 21.2 °F 23.0 °F 86% 30.05 in 10.0 mi SW 4.6 mph - N/A   Clear
5:50 AM 26.6 °F 21.2 °F 23.0 °F 86% 30.04 in 10.0 mi SW 4.6 mph - N/A   Clear
6:09 AM 28.4 °F 23.3 °F 23.0 °F 80% 30.03 in 10.0 mi SW 4.6 mph - N/A   Clear
6:29 AM 28.4 °F 23.3 °F 23.0 °F 80% 30.03 in 10.0 mi SSW 4.6 mph - N/A   Clear
6:50 AM 26.6 °F 22.6 °F 23.0 °F 86% 30.02 in 10.0 mi SSW 3.5 mph - N/A   Clear
7:10 AM 26.6 °F 21.2 °F 23.0 °F 86% 30.02 in 10.0 mi SSW 4.6 mph - N/A   Clear
7:29 AM 26.6 °F 21.2 °F 23.0 °F 86% 30.02 in 10.0 mi SSW 4.6 mph - N/A   Clear
7:50 AM 28.4 °F 23.3 °F 24.8 °F 86% 30.01 in 10.0 mi SW 4.6 mph - N/A   Clear
8:09 AM 28.4 °F 22.2 °F 26.6 °F 93% 30.00 in 10.0 mi SSW 5.8 mph - N/A   Clear
8:49 AM 32.0 °F 24.2 °F 28.4 °F 87% 30.00 in 10.0 mi SW 9.2 mph - N/A   Clear
9:09 AM 32.0 °F 25.6 °F 28.4 °F 87% 30.00 in 10.0 mi SW 6.9 mph - N/A   Clear
9:49 AM 35.6 °F 27.5 °F 28.4 °F 75% 29.98 in 10.0 mi SW 11.5 mph 16.1 mph N/A   Clear
10:09 AM 37.4 °F 30.8 °F 28.4 °F 70% 29.98 in 10.0 mi WSW 9.2 mph - N/A   Scattered Clouds
10:30 AM 41.0 °F 33.5 °F 28.4 °F 61% 29.98 in 10.0 mi SW 13.8 mph - N/A   Scattered Clouds
10:49 AM 41.0 °F 34.3 °F 28.4 °F 61% 29.98 in 10.0 mi SW 11.5 mph - N/A   Clear
11:09 AM 42.8 °F 38.0 °F 28.4 °F 57% 29.97 in 10.0 mi SW 8.1 mph - N/A   Clear
11:30 AM 42.8 °F 37.5 °F 26.6 °F 53% 29.96 in 10.0 mi SSW 9.2 mph 17.3 mph N/A   Scattered Clouds
11:49 AM 44.6 °F 39.7 °F 26.6 °F 49% 29.95 in 10.0 mi SW 9.2 mph - N/A   Scattered Clouds
12:09 PM 46.4 °F 40.7 °F 24.8 °F 43% 29.95 in 10.0 mi WSW 12.7 mph 20.7 mph N/A   Clear
12:29 PM 46.4 °F 40.7 °F 26.6 °F 46% 29.95 in 10.0 mi SSW 12.7 mph 18.4 mph N/A   Clear
12:49 PM 48.2 °F - 24.8 °F 40% 29.93 in 10.0 mi SW 15.0 mph 19.6 mph N/A   Scattered Clouds
1:10 PM 46.4 °F 41.5 °F 23.0 °F 40% 29.93 in 10.0 mi WSW 10.4 mph - N/A   Scattered Clouds
1:30 PM 50.0 °F - 24.8 °F 37% 29.91 in 10.0 mi WSW 13.8 mph 19.6 mph N/A   Scattered Clouds
1:49 PM 46.4 °F 39.5 °F 23.0 °F 40% 29.91 in 10.0 mi WSW 17.3 mph 21.9 mph N/A   Clear
2:09 PM 48.2 °F - 23.0 °F 37% 29.90 in 10.0 mi WSW 13.8 mph 23.0 mph N/A   Clear
2:30 PM - - - N/A% - 10.0 mi West 16.1 mph 20.7 mph N/A   Clear
2:49 PM 51.8 °F - 23.0 °F 33% 29.89 in 10.0 mi SW 16.1 mph 26.5 mph N/A   Clear
3:09 PM 50.0 °F - 23.0 °F 35% 29.88 in 10.0 mi WSW 13.8 mph 21.9 mph N/A   Clear
3:30 PM 53.6 °F - 21.2 °F 28% 29.87 in 10.0 mi WSW 15.0 mph 24.2 mph N/A   Scattered Clouds
3:49 PM 50.0 °F - 19.4 °F 30% 29.87 in 10.0 mi West 15.0 mph 25.3 mph N/A   Scattered Clouds
4:09 PM 51.8 °F - 23.0 °F 33% 29.86 in 10.0 mi SSW 12.7 mph 20.7 mph N/A   Clear
4:30 PM 50.0 °F - 23.0 °F 35% 29.86 in 10.0 mi SW 16.1 mph 23.0 mph N/A   Clear
4:49 PM 50.0 °F - 23.0 °F 35% 29.86 in 10.0 mi SW 18.4 mph 25.3 mph N/A   Clear
5:09 PM 48.2 °F - 21.2 °F 34% 29.86 in 10.0 mi SW 10.4 mph 19.6 mph N/A   Clear
5:30 PM 46.4 °F 40.4 °F 21.2 °F 37% 29.86 in 10.0 mi SW 13.8 mph 20.7 mph N/A   Clear
5:49 PM 46.4 °F 40.7 °F 21.2 °F 37% 29.86 in 10.0 mi SW 12.7 mph 18.4 mph N/A   Clear
6:09 PM 46.4 °F 42.9 °F 19.4 °F 34% 29.86 in 10.0 mi SW 6.9 mph 11.5 mph N/A   Clear
6:29 PM 44.6 °F 40.7 °F 19.4 °F 37% 29.86 in 10.0 mi SSW 6.9 mph - N/A   Clear
6:49 PM 42.8 °F 38.6 °F 19.4 °F 39% 29.86 in 10.0 mi SSW 6.9 mph - N/A   Clear
7:10 PM 41.0 °F 37.1 °F 19.4 °F 42% 29.86 in 10.0 mi SSW 5.8 mph - N/A   Clear
7:50 PM 39.2 °F 35.0 °F 21.2 °F 49% 29.85 in 10.0 mi South 5.8 mph - N/A   Clear
8:10 PM 41.0 °F 36.4 °F 21.2 °F 45% 29.85 in 10.0 mi South 6.9 mph - N/A   Mostly Cloudy
8:29 PM 41.0 °F 35.8 °F 21.2 °F 45% 29.85 in 10.0 mi South 8.1 mph - N/A   Scattered Clouds
8:50 PM 41.0 °F 35.8 °F 21.2 °F 45% 29.85 in 10.0 mi SSW 8.1 mph - N/A   Scattered Clouds
9:10 PM 41.0 °F 35.2 °F 21.2 °F 45% 29.84 in 10.0 mi South 9.2 mph - N/A   Overcast
9:29 PM 41.0 °F 35.2 °F 21.2 °F 45% 29.84 in 10.0 mi SSW 9.2 mph - N/A   Overcast
9:50 PM 41.0 °F 34.7 °F 21.2 °F 45% 29.83 in 10.0 mi SSW 10.4 mph - N/A   Overcast
10:10 PM 41.0 °F 34.7 °F 19.4 °F 42% 29.83 in 10.0 mi SSW 10.4 mph - N/A   Overcast
10:30 PM - - - N/A% 29.82 in 10.0 mi SSW 10.4 mph - N/A   Overcast
10:49 PM 41.0 °F 34.3 °F 19.4 °F 42% 29.82 in 10.0 mi South 11.5 mph - N/A   Overcast
11:09 PM 41.0 °F 34.7 °F 19.4 °F 42% 29.80 in 10.0 mi SSW 10.4 mph - N/A   Overcast
11:30 PM 41.0 °F 35.2 °F 19.4 °F 42% 29.80 in 10.0 mi SSW 9.2 mph - N/A   Overcast
11:49 PM 41.0 °F 35.8 °F 21.2 °F 45% 29.80 in 10.0 mi SSW 8.1 mph - N/A   Overcast